Terminal Aerodrome Forecast
Issued by NWS Mt. Holly, NJ

Home | Current Version | Previous Version | Text Only | Print | Product List | Glossary On
Versions: 1 2 3 4 5 6 7 8 9 10 11 12 13 14 15 16 17 18 19 20 21
492
FTUS41 KPHI 202333
TAFTTN
TAF
KTTN 202333Z 2100/2124 27008KT P6SM SCT050
      TEMPO 2100/2102 29015G30KT 4SM TSRA OVC035CB
     FM210300 VRB03KT P6SM SCT100
     FM211300 32006KT P6SM SCT050
     FM211600 29008KT P6SM SCT050=

USA.gov is the U.S. government's official web portal to all federal, state and local government web resources and services.